sensor_id;sensor_type;location;lat;lon;timestamp;P1;durP1;ratioP1;P2;durP2;ratioP2
65202;SDS011;51788;45.124;38.966;2024-03-02T00:00:03;37.05;;;16.35;;
65202;SDS011;51788;45.124;38.966;2024-03-02T00:02:39;41.60;;;16.13;;
65202;SDS011;51788;45.124;38.966;2024-03-02T00:05:11;35.90;;;15.90;;
65202;SDS011;51788;45.124;38.966;2024-03-02T00:07:41;30.83;;;16.08;;
65202;SDS011;51788;45.124;38.966;2024-03-02T00:10:09;36.08;;;17.10;;
65202;SDS011;51788;45.124;38.966;2024-03-02T00:12:40;40.80;;;16.63;;
65202;SDS011;51788;45.124;38.966;2024-03-02T00:15:17;41.78;;;18.48;;
65202;SDS011;51788;45.124;38.966;2024-03-02T00:18:01;37.38;;;16.20;;
65202;SDS011;51788;45.124;38.966;2024-03-02T00:20:27;30.20;;;16.48;;
65202;SDS011;51788;45.124;38.966;2024-03-02T00:23:04;30.05;;;16.63;;
65202;SDS011;51788;45.124;38.966;2024-03-02T00:28:25;31.80;;;17.13;;
65202;SDS011;51788;45.124;38.966;2024-03-02T00:30:56;34.60;;;18.48;;
65202;SDS011;51788;45.124;38.966;2024-03-02T00:33:42;43.20;;;21.20;;
65202;SDS011;51788;45.124;38.966;2024-03-02T00:36:12;30.63;;;18.70;;
65202;SDS011;51788;45.124;38.966;2024-03-02T00:38:46;36.78;;;20.52;;
65202;SDS011;51788;45.124;38.966;2024-03-02T00:43:50;34.75;;;21.92;;
65202;SDS011;51788;45.124;38.966;2024-03-02T00:46:29;42.05;;;23.15;;
65202;SDS011;51788;45.124;38.966;2024-03-02T00:48:59;38.75;;;23.70;;
65202;SDS011;51788;45.124;38.966;2024-03-02T00:51:27;44.95;;;22.13;;
65202;SDS011;51788;45.124;38.966;2024-03-02T00:53:55;47.35;;;22.58;;
65202;SDS011;51788;45.124;38.966;2024-03-02T00:56:23;27.88;;;16.98;;
65202;SDS011;51788;45.124;38.966;2024-03-02T00:58:50;43.88;;;22.02;;
65202;SDS011;51788;45.124;38.966;2024-03-02T01:01:16;37.40;;;21.92;;
65202;SDS011;51788;45.124;38.966;2024-03-02T01:03:42;38.20;;;20.58;;
65202;SDS011;51788;45.124;38.966;2024-03-02T01:06:09;30.77;;;18.15;;
65202;SDS011;51788;45.124;38.966;2024-03-02T01:08:35;41.70;;;19.80;;
65202;SDS011;51788;45.124;38.966;2024-03-02T01:11:01;34.60;;;18.77;;
65202;SDS011;51788;45.124;38.966;2024-03-02T01:13:28;39.42;;;19.25;;
65202;SDS011;51788;45.124;38.966;2024-03-02T01:15:55;35.17;;;20.45;;
65202;SDS011;51788;45.124;38.966;2024-03-02T01:18:21;44.42;;;21.23;;
65202;SDS011;51788;45.124;38.966;2024-03-02T01:20:50;43.20;;;21.88;;
65202;SDS011;51788;45.124;38.966;2024-03-02T01:23:21;29.33;;;17.80;;
65202;SDS011;51788;45.124;38.966;2024-03-02T01:25:47;28.45;;;15.65;;
65202;SDS011;51788;45.124;38.966;2024-03-02T01:28:14;36.17;;;20.50;;
65202;SDS011;51788;45.124;38.966;2024-03-02T01:30:40;29.67;;;17.20;;
65202;SDS011;51788;45.124;38.966;2024-03-02T01:33:06;25.50;;;16.80;;
65202;SDS011;51788;45.124;38.966;2024-03-02T01:35:32;27.13;;;14.52;;
65202;SDS011;51788;45.124;38.966;2024-03-02T01:38:00;31.55;;;19.55;;
65202;SDS011;51788;45.124;38.966;2024-03-02T01:40:26;40.03;;;18.00;;
65202;SDS011;51788;45.124;38.966;2024-03-02T01:42:53;34.75;;;16.17;;
65202;SDS011;51788;45.124;38.966;2024-03-02T01:45:20;38.00;;;18.17;;
65202;SDS011;51788;45.124;38.966;2024-03-02T01:47:46;35.90;;;18.10;;
65202;SDS011;51788;45.124;38.966;2024-03-02T01:50:12;43.50;;;17.42;;
65202;SDS011;51788;45.124;38.966;2024-03-02T01:52:38;27.10;;;17.05;;
65202;SDS011;51788;45.124;38.966;2024-03-02T01:55:05;29.20;;;18.52;;
65202;SDS011;51788;45.124;38.966;2024-03-02T01:57:33;36.17;;;15.77;;
65202;SDS011;51788;45.124;38.966;2024-03-02T02:00:02;28.20;;;15.13;;
65202;SDS011;51788;45.124;38.966;2024-03-02T02:02:37;38.25;;;17.88;;
65202;SDS011;51788;45.124;38.966;2024-03-02T02:05:03;35.70;;;19.27;;
65202;SDS011;51788;45.124;38.966;2024-03-02T02:07:29;34.08;;;17.92;;
65202;SDS011;51788;45.124;38.966;2024-03-02T02:09:56;32.38;;;17.80;;
65202;SDS011;51788;45.124;38.966;2024-03-02T02:12:23;28.23;;;18.65;;
65202;SDS011;51788;45.124;38.966;2024-03-02T02:14:49;39.22;;;21.73;;
65202;SDS011;51788;45.124;38.966;2024-03-02T02:17:15;38.55;;;21.05;;
65202;SDS011;51788;45.124;38.966;2024-03-02T02:19:42;42.22;;;23.13;;
65202;SDS011;51788;45.124;38.966;2024-03-02T02:22:11;28.20;;;17.35;;
65202;SDS011;51788;45.124;38.966;2024-03-02T02:24:40;34.85;;;16.60;;
65202;SDS011;51788;45.124;38.966;2024-03-02T02:27:07;31.45;;;18.88;;
65202;SDS011;51788;45.124;38.966;2024-03-02T02:29:34;29.20;;;17.48;;
65202;SDS011;51788;45.124;38.966;2024-03-02T02:32:00;31.85;;;18.13;;
65202;SDS011;51788;45.124;38.966;2024-03-02T02:34:26;30.15;;;17.38;;
65202;SDS011;51788;45.124;38.966;2024-03-02T02:36:52;41.63;;;21.27;;
65202;SDS011;51788;45.124;38.966;2024-03-02T02:39:18;31.85;;;17.15;;
65202;SDS011;51788;45.124;38.966;2024-03-02T02:41:46;31.88;;;16.77;;
65202;SDS011;51788;45.124;38.966;2024-03-02T02:44:12;25.95;;;14.90;;
65202;SDS011;51788;45.124;38.966;2024-03-02T02:46:38;24.17;;;14.35;;
65202;SDS011;51788;45.124;38.966;2024-03-02T02:49:05;32.08;;;17.95;;
65202;SDS011;51788;45.124;38.966;2024-03-02T02:51:31;32.22;;;17.77;;
65202;SDS011;51788;45.124;38.966;2024-03-02T02:53:57;29.77;;;16.83;;
65202;SDS011;51788;45.124;38.966;2024-03-02T02:56:23;32.05;;;17.25;;
65202;SDS011;51788;45.124;38.966;2024-03-02T02:58:49;25.15;;;16.48;;
65202;SDS011;51788;45.124;38.966;2024-03-02T03:01:18;44.92;;;20.50;;
65202;SDS011;51788;45.124;38.966;2024-03-02T03:03:44;39.55;;;17.83;;
65202;SDS011;51788;45.124;38.966;2024-03-02T03:06:11;28.50;;;15.73;;
65202;SDS011;51788;45.124;38.966;2024-03-02T03:08:37;34.80;;;18.52;;
65202;SDS011;51788;45.124;38.966;2024-03-02T03:11:04;33.33;;;18.45;;
65202;SDS011;51788;45.124;38.966;2024-03-02T03:13:33;34.67;;;18.88;;
65202;SDS011;51788;45.124;38.966;2024-03-02T03:16:00;38.35;;;16.63;;
65202;SDS011;51788;45.124;38.966;2024-03-02T03:18:25;33.33;;;17.55;;
65202;SDS011;51788;45.124;38.966;2024-03-02T03:20:52;33.65;;;16.20;;
65202;SDS011;51788;45.124;38.966;2024-03-02T03:23:18;39.78;;;19.15;;
65202;SDS011;51788;45.124;38.966;2024-03-02T03:25:44;29.80;;;17.90;;
65202;SDS011;51788;45.124;38.966;2024-03-02T03:28:10;27.38;;;17.08;;
65202;SDS011;51788;45.124;38.966;2024-03-02T03:30:37;34.13;;;17.98;;
65202;SDS011;51788;45.124;38.966;2024-03-02T03:33:03;29.27;;;17.25;;
65202;SDS011;51788;45.124;38.966;2024-03-02T03:35:31;35.67;;;20.05;;
65202;SDS011;51788;45.124;38.966;2024-03-02T03:37:58;38.60;;;20.10;;
65202;SDS011;51788;45.124;38.966;2024-03-02T03:40:24;57.33;;;18.58;;
65202;SDS011;51788;45.124;38.966;2024-03-02T03:42:50;45.13;;;23.75;;
65202;SDS011;51788;45.124;38.966;2024-03-02T03:45:16;44.33;;;22.55;;
65202;SDS011;51788;45.124;38.966;2024-03-02T03:47:42;31.48;;;16.88;;
65202;SDS011;51788;45.124;38.966;2024-03-02T03:50:08;29.92;;;16.33;;
65202;SDS011;51788;45.124;38.966;2024-03-02T03:52:35;35.20;;;18.92;;
65202;SDS011;51788;45.124;38.966;2024-03-02T03:55:01;38.58;;;20.40;;
65202;SDS011;51788;45.124;38.966;2024-03-02T03:57:27;50.83;;;16.90;;
65202;SDS011;51788;45.124;38.966;2024-03-02T03:59:53;43.65;;;18.92;;
65202;SDS011;51788;45.124;38.966;2024-03-02T04:02:19;36.22;;;18.15;;
65202;SDS011;51788;45.124;38.966;2024-03-02T04:04:45;33.47;;;18.70;;
65202;SDS011;51788;45.124;38.966;2024-03-02T04:07:11;42.58;;;18.70;;
65202;SDS011;51788;45.124;38.966;2024-03-02T04:09:37;39.80;;;23.08;;
65202;SDS011;51788;45.124;38.966;2024-03-02T04:12:03;33.65;;;20.02;;
65202;SDS011;51788;45.124;38.966;2024-03-02T04:14:29;47.97;;;21.65;;
65202;SDS011;51788;45.124;38.966;2024-03-02T04:16:55;51.45;;;19.75;;
65202;SDS011;51788;45.124;38.966;2024-03-02T04:19:21;50.53;;;24.25;;
65202;SDS011;51788;45.124;38.966;2024-03-02T04:21:47;25.98;;;15.40;;
65202;SDS011;51788;45.124;38.966;2024-03-02T04:24:13;36.47;;;18.60;;
65202;SDS011;51788;45.124;38.966;2024-03-02T04:26:39;37.10;;;20.05;;
65202;SDS011;51788;45.124;38.966;2024-03-02T04:29:05;40.60;;;18.20;;
65202;SDS011;51788;45.124;38.966;2024-03-02T04:31:31;53.30;;;19.77;;
65202;SDS011;51788;45.124;38.966;2024-03-02T04:33:57;34.03;;;18.50;;
65202;SDS011;51788;45.124;38.966;2024-03-02T04:36:23;40.60;;;21.48;;
65202;SDS011;51788;45.124;38.966;2024-03-02T04:38:49;36.63;;;18.58;;
65202;SDS011;51788;45.124;38.966;2024-03-02T04:41:15;30.50;;;17.95;;
65202;SDS011;51788;45.124;38.966;2024-03-02T04:43:41;59.03;;;21.35;;
65202;SDS011;51788;45.124;38.966;2024-03-02T04:46:07;38.22;;;17.45;;
65202;SDS011;51788;45.124;38.966;2024-03-02T04:48:33;51.88;;;18.98;;
65202;SDS011;51788;45.124;38.966;2024-03-02T04:50:59;39.80;;;19.00;;
65202;SDS011;51788;45.124;38.966;2024-03-02T04:53:25;32.83;;;17.50;;
65202;SDS011;51788;45.124;38.966;2024-03-02T04:55:51;20.63;;;12.38;;
65202;SDS011;51788;45.124;38.966;2024-03-02T04:58:19;35.97;;;18.55;;
65202;SDS011;51788;45.124;38.966;2024-03-02T05:00:45;29.00;;;15.23;;
65202;SDS011;51788;45.124;38.966;2024-03-02T05:03:14;31.45;;;17.05;;
65202;SDS011;51788;45.124;38.966;2024-03-02T05:05:40;25.98;;;14.85;;
65202;SDS011;51788;45.124;38.966;2024-03-02T05:08:06;54.63;;;20.08;;
65202;SDS011;51788;45.124;38.966;2024-03-02T05:10:32;33.72;;;17.45;;
65202;SDS011;51788;45.124;38.966;2024-03-02T05:12:58;26.35;;;15.38;;
65202;SDS011;51788;45.124;38.966;2024-03-02T05:15:24;44.78;;;20.17;;
65202;SDS011;51788;45.124;38.966;2024-03-02T05:17:51;44.17;;;24.35;;
65202;SDS011;51788;45.124;38.966;2024-03-02T05:20:17;45.50;;;20.45;;
65202;SDS011;51788;45.124;38.966;2024-03-02T05:22:43;35.65;;;18.33;;
65202;SDS011;51788;45.124;38.966;2024-03-02T05:25:09;29.35;;;17.23;;
65202;SDS011;51788;45.124;38.966;2024-03-02T05:27:35;39.72;;;18.80;;
65202;SDS011;51788;45.124;38.966;2024-03-02T05:30:01;38.88;;;16.92;;
65202;SDS011;51788;45.124;38.966;2024-03-02T05:32:29;47.20;;;20.83;;
65202;SDS011;51788;45.124;38.966;2024-03-02T05:34:55;35.63;;;17.95;;
65202;SDS011;51788;45.124;38.966;2024-03-02T05:37:21;43.75;;;21.52;;
65202;SDS011;51788;45.124;38.966;2024-03-02T05:39:47;48.50;;;23.25;;
65202;SDS011;51788;45.124;38.966;2024-03-02T05:42:13;34.90;;;15.30;;
65202;SDS011;51788;45.124;38.966;2024-03-02T05:44:39;32.63;;;18.52;;
65202;SDS011;51788;45.124;38.966;2024-03-02T05:47:05;40.95;;;15.90;;
65202;SDS011;51788;45.124;38.966;2024-03-02T05:49:34;44.72;;;17.30;;
65202;SDS011;51788;45.124;38.966;2024-03-02T05:52:00;42.78;;;22.55;;
65202;SDS011;51788;45.124;38.966;2024-03-02T05:54:26;34.72;;;18.25;;
65202;SDS011;51788;45.124;38.966;2024-03-02T05:56:52;46.38;;;20.55;;
65202;SDS011;51788;45.124;38.966;2024-03-02T05:59:18;64.13;;;20.73;;
65202;SDS011;51788;45.124;38.966;2024-03-02T06:01:47;32.70;;;18.00;;
65202;SDS011;51788;45.124;38.966;2024-03-02T06:04:16;45.58;;;22.80;;
65202;SDS011;51788;45.124;38.966;2024-03-02T06:06:42;40.40;;;21.45;;
65202;SDS011;51788;45.124;38.966;2024-03-02T06:09:08;32.17;;;20.15;;
65202;SDS011;51788;45.124;38.966;2024-03-02T06:11:37;32.58;;;18.02;;
65202;SDS011;51788;45.124;38.966;2024-03-02T06:14:05;28.20;;;18.98;;
65202;SDS011;51788;45.124;38.966;2024-03-02T06:16:32;33.42;;;20.30;;
65202;SDS011;51788;45.124;38.966;2024-03-02T06:18:58;33.63;;;19.15;;
65202;SDS011;51788;45.124;38.966;2024-03-02T06:21:25;49.90;;;20.00;;
65202;SDS011;51788;45.124;38.966;2024-03-02T06:23:51;34.15;;;18.83;;
65202;SDS011;51788;45.124;38.966;2024-03-02T06:26:17;28.42;;;18.38;;
65202;SDS011;51788;45.124;38.966;2024-03-02T06:28:43;36.83;;;24.08;;
65202;SDS011;51788;45.124;38.966;2024-03-02T06:31:10;36.45;;;19.70;;
65202;SDS011;51788;45.124;38.966;2024-03-02T06:33:36;52.78;;;21.67;;
65202;SDS011;51788;45.124;38.966;2024-03-02T06:36:02;32.13;;;15.85;;
65202;SDS011;51788;45.124;38.966;2024-03-02T06:38:28;34.47;;;20.83;;
65202;SDS011;51788;45.124;38.966;2024-03-02T06:40:54;42.08;;;17.38;;
65202;SDS011;51788;45.124;38.966;2024-03-02T06:43:20;48.25;;;24.80;;
65202;SDS011;51788;45.124;38.966;2024-03-02T06:45:50;34.45;;;17.92;;
65202;SDS011;51788;45.124;38.966;2024-03-02T06:48:17;47.38;;;19.88;;
65202;SDS011;51788;45.124;38.966;2024-03-02T06:50:46;48.75;;;21.60;;
65202;SDS011;51788;45.124;38.966;2024-03-02T06:53:16;45.92;;;18.08;;
65202;SDS011;51788;45.124;38.966;2024-03-02T06:55:46;37.30;;;14.38;;
65202;SDS011;51788;45.124;38.966;2024-03-02T06:58:12;49.28;;;17.95;;
65202;SDS011;51788;45.124;38.966;2024-03-02T07:00:40;45.75;;;19.40;;
65202;SDS011;51788;45.124;38.966;2024-03-02T07:03:07;53.17;;;23.02;;
65202;SDS011;51788;45.124;38.966;2024-03-02T07:05:33;44.80;;;20.75;;
65202;SDS011;51788;45.124;38.966;2024-03-02T07:07:59;64.45;;;20.38;;
65202;SDS011;51788;45.124;38.966;2024-03-02T07:10:26;39.00;;;22.77;;
65202;SDS011;51788;45.124;38.966;2024-03-02T07:12:52;42.55;;;19.83;;
65202;SDS011;51788;45.124;38.966;2024-03-02T07:15:18;48.72;;;21.35;;
65202;SDS011;51788;45.124;38.966;2024-03-02T07:18:08;41.95;;;21.25;;
65202;SDS011;51788;45.124;38.966;2024-03-02T07:20:34;41.25;;;24.55;;
65202;SDS011;51788;45.124;38.966;2024-03-02T07:23:00;60.13;;;28.92;;
65202;SDS011;51788;45.124;38.966;2024-03-02T07:25:26;53.28;;;25.60;;
65202;SDS011;51788;45.124;38.966;2024-03-02T07:27:53;69.88;;;31.27;;
65202;SDS011;51788;45.124;38.966;2024-03-02T07:30:19;57.28;;;31.48;;
65202;SDS011;51788;45.124;38.966;2024-03-02T07:32:45;58.13;;;31.85;;
65202;SDS011;51788;45.124;38.966;2024-03-02T07:35:14;86.13;;;35.90;;
65202;SDS011;51788;45.124;38.966;2024-03-02T07:37:43;50.60;;;27.02;;
65202;SDS011;51788;45.124;38.966;2024-03-02T07:40:09;64.55;;;29.88;;
65202;SDS011;51788;45.124;38.966;2024-03-02T07:42:39;52.63;;;34.22;;
65202;SDS011;51788;45.124;38.966;2024-03-02T07:45:06;44.50;;;23.40;;
65202;SDS011;51788;45.124;38.966;2024-03-02T07:47:33;54.25;;;30.05;;
65202;SDS011;51788;45.124;38.966;2024-03-02T07:50:00;54.30;;;29.48;;
65202;SDS011;51788;45.124;38.966;2024-03-02T07:52:26;46.55;;;24.40;;
65202;SDS011;51788;45.124;38.966;2024-03-02T07:54:52;47.83;;;24.33;;
65202;SDS011;51788;45.124;38.966;2024-03-02T07:57:19;57.97;;;29.80;;
65202;SDS011;51788;45.124;38.966;2024-03-02T07:59:45;47.85;;;29.10;;
65202;SDS011;51788;45.124;38.966;2024-03-02T08:02:12;52.42;;;29.60;;
65202;SDS011;51788;45.124;38.966;2024-03-02T08:04:38;67.57;;;29.95;;
65202;SDS011;51788;45.124;38.966;2024-03-02T08:07:04;59.33;;;23.02;;
65202;SDS011;51788;45.124;38.966;2024-03-02T08:09:30;40.30;;;23.55;;
65202;SDS011;51788;45.124;38.966;2024-03-02T08:11:56;33.90;;;20.90;;
65202;SDS011;51788;45.124;38.966;2024-03-02T08:14:23;59.75;;;21.63;;
65202;SDS011;51788;45.124;38.966;2024-03-02T08:16:49;41.88;;;23.45;;
65202;SDS011;51788;45.124;38.966;2024-03-02T08:19:15;34.72;;;19.48;;
65202;SDS011;51788;45.124;38.966;2024-03-02T08:21:42;51.53;;;22.45;;
65202;SDS011;51788;45.124;38.966;2024-03-02T08:24:08;36.63;;;19.23;;
65202;SDS011;51788;45.124;38.966;2024-03-02T08:26:34;39.33;;;16.85;;
65202;SDS011;51788;45.124;38.966;2024-03-02T08:29:00;48.92;;;18.45;;
65202;SDS011;51788;45.124;38.966;2024-03-02T08:31:29;45.03;;;21.55;;
65202;SDS011;51788;45.124;38.966;2024-03-02T08:33:55;35.88;;;20.77;;
65202;SDS011;51788;45.124;38.966;2024-03-02T08:36:22;38.55;;;19.48;;
65202;SDS011;51788;45.124;38.966;2024-03-02T08:38:49;45.67;;;21.98;;
65202;SDS011;51788;45.124;38.966;2024-03-02T08:41:15;33.25;;;20.58;;
65202;SDS011;51788;45.124;38.966;2024-03-02T08:43:42;38.33;;;21.60;;
65202;SDS011;51788;45.124;38.966;2024-03-02T08:46:08;34.75;;;21.52;;
65202;SDS011;51788;45.124;38.966;2024-03-02T08:48:34;33.17;;;19.83;;
65202;SDS011;51788;45.124;38.966;2024-03-02T08:51:00;51.08;;;23.83;;
65202;SDS011;51788;45.124;38.966;2024-03-02T08:53:26;42.72;;;19.30;;
65202;SDS011;51788;45.124;38.966;2024-03-02T08:55:52;44.17;;;20.75;;
65202;SDS011;51788;45.124;38.966;2024-03-02T08:58:20;27.42;;;20.08;;
65202;SDS011;51788;45.124;38.966;2024-03-02T09:00:46;35.72;;;19.63;;
65202;SDS011;51788;45.124;38.966;2024-03-02T09:03:13;26.00;;;16.60;;
65202;SDS011;51788;45.124;38.966;2024-03-02T09:05:40;46.72;;;19.20;;
65202;SDS011;51788;45.124;38.966;2024-03-02T09:08:06;38.97;;;19.50;;
65202;SDS011;51788;45.124;38.966;2024-03-02T09:10:33;25.02;;;15.57;;
65202;SDS011;51788;45.124;38.966;2024-03-02T09:12:59;33.15;;;19.40;;
65202;SDS011;51788;45.124;38.966;2024-03-02T09:15:25;30.75;;;18.55;;
65202;SDS011;51788;45.124;38.966;2024-03-02T09:17:51;57.53;;;22.77;;
65202;SDS011;51788;45.124;38.966;2024-03-02T09:20:17;38.20;;;18.70;;
65202;SDS011;51788;45.124;38.966;2024-03-02T09:22:43;54.38;;;19.83;;
65202;SDS011;51788;45.124;38.966;2024-03-02T09:25:09;37.42;;;19.85;;
65202;SDS011;51788;45.124;38.966;2024-03-02T09:27:38;37.13;;;19.35;;
65202;SDS011;51788;45.124;38.966;2024-03-02T09:30:05;25.58;;;14.73;;
65202;SDS011;51788;45.124;38.966;2024-03-02T09:32:36;29.95;;;18.63;;
65202;SDS011;51788;45.124;38.966;2024-03-02T09:35:02;24.70;;;16.17;;
65202;SDS011;51788;45.124;38.966;2024-03-02T09:37:29;51.47;;;18.90;;
65202;SDS011;51788;45.124;38.966;2024-03-02T09:39:55;27.48;;;17.67;;
65202;SDS011;51788;45.124;38.966;2024-03-02T09:42:21;36.30;;;18.58;;
65202;SDS011;51788;45.124;38.966;2024-03-02T09:44:47;46.88;;;22.10;;
65202;SDS011;51788;45.124;38.966;2024-03-02T09:47:13;41.70;;;23.23;;
65202;SDS011;51788;45.124;38.966;2024-03-02T09:49:39;50.15;;;25.67;;
65202;SDS011;51788;45.124;38.966;2024-03-02T09:52:06;38.55;;;21.85;;
65202;SDS011;51788;45.124;38.966;2024-03-02T09:54:32;37.88;;;21.42;;
65202;SDS011;51788;45.124;38.966;2024-03-02T09:56:58;25.52;;;18.15;;
65202;SDS011;51788;45.124;38.966;2024-03-02T09:59:26;26.15;;;15.07;;
65202;SDS011;51788;45.124;38.966;2024-03-02T10:01:57;43.30;;;20.13;;
65202;SDS011;51788;45.124;38.966;2024-03-02T10:04:26;41.80;;;22.27;;
65202;SDS011;51788;45.124;38.966;2024-03-02T10:09:42;30.65;;;17.13;;
65202;SDS011;51788;45.124;38.966;2024-03-02T10:12:10;29.75;;;15.77;;
65202;SDS011;51788;45.124;38.966;2024-03-02T10:14:39;29.50;;;16.23;;
65202;SDS011;51788;45.124;38.966;2024-03-02T10:17:06;31.42;;;17.38;;
65202;SDS011;51788;45.124;38.966;2024-03-02T10:19:36;30.23;;;20.33;;
65202;SDS011;51788;45.124;38.966;2024-03-02T10:22:07;31.63;;;17.13;;
65202;SDS011;51788;45.124;38.966;2024-03-02T10:24:41;33.75;;;17.65;;
65202;SDS011;51788;45.124;38.966;2024-03-02T10:29:40;22.88;;;13.75;;
65202;SDS011;51788;45.124;38.966;2024-03-02T10:32:10;60.30;;;18.75;;
65202;SDS011;51788;45.124;38.966;2024-03-02T10:34:39;41.85;;;19.02;;
65202;SDS011;51788;45.124;38.966;2024-03-02T10:37:06;36.65;;;18.75;;
65202;SDS011;51788;45.124;38.966;2024-03-02T10:39:34;28.70;;;19.33;;
65202;SDS011;51788;45.124;38.966;2024-03-02T10:42:08;27.02;;;15.27;;
65202;SDS011;51788;45.124;38.966;2024-03-02T10:44:34;33.50;;;14.20;;
65202;SDS011;51788;45.124;38.966;2024-03-02T10:47:01;46.03;;;17.52;;
65202;SDS011;51788;45.124;38.966;2024-03-02T10:49:29;27.65;;;16.70;;
65202;SDS011;51788;45.124;38.966;2024-03-02T10:51:59;29.77;;;15.68;;
65202;SDS011;51788;45.124;38.966;2024-03-02T10:54:26;22.83;;;14.27;;
65202;SDS011;51788;45.124;38.966;2024-03-02T10:56:55;49.80;;;18.15;;
65202;SDS011;51788;45.124;38.966;2024-03-02T10:59:28;46.75;;;19.60;;
65202;SDS011;51788;45.124;38.966;2024-03-02T11:02:09;27.98;;;14.48;;
65202;SDS011;51788;45.124;38.966;2024-03-02T11:04:37;33.38;;;14.25;;
65202;SDS011;51788;45.124;38.966;2024-03-02T11:07:12;63.60;;;16.65;;
65202;SDS011;51788;45.124;38.966;2024-03-02T11:09:42;44.63;;;22.33;;
65202;SDS011;51788;45.124;38.966;2024-03-02T11:12:34;26.02;;;13.23;;
65202;SDS011;51788;45.124;38.966;2024-03-02T11:15:10;45.70;;;16.98;;
65202;SDS011;51788;45.124;38.966;2024-03-02T11:17:39;37.45;;;16.75;;
65202;SDS011;51788;45.124;38.966;2024-03-02T11:20:06;24.85;;;13.98;;
65202;SDS011;51788;45.124;38.966;2024-03-02T11:22:34;34.72;;;15.48;;
65202;SDS011;51788;45.124;38.966;2024-03-02T11:25:01;36.95;;;13.32;;
65202;SDS011;51788;45.124;38.966;2024-03-02T11:32:57;22.17;;;13.18;;
65202;SDS011;51788;45.124;38.966;2024-03-02T11:35:37;21.50;;;13.07;;
65202;SDS011;51788;45.124;38.966;2024-03-02T11:38:08;31.38;;;13.20;;
65202;SDS011;51788;45.124;38.966;2024-03-02T11:40:35;29.92;;;14.98;;
65202;SDS011;51788;45.124;38.966;2024-03-02T11:43:01;32.63;;;16.75;;
65202;SDS011;51788;45.124;38.966;2024-03-02T11:45:27;52.40;;;16.83;;
65202;SDS011;51788;45.124;38.966;2024-03-02T11:47:54;21.27;;;14.52;;
65202;SDS011;51788;45.124;38.966;2024-03-02T11:50:34;55.47;;;16.83;;
65202;SDS011;51788;45.124;38.966;2024-03-02T11:53:06;50.87;;;15.03;;
65202;SDS011;51788;45.124;38.966;2024-03-02T11:55:35;35.63;;;12.40;;
65202;SDS011;51788;45.124;38.966;2024-03-02T11:58:03;29.55;;;11.93;;
65202;SDS011;51788;45.124;38.966;2024-03-02T12:00:29;28.13;;;10.52;;
65202;SDS011;51788;45.124;38.966;2024-03-02T12:03:05;17.67;;;11.60;;
65202;SDS011;51788;45.124;38.966;2024-03-02T12:05:32;18.15;;;11.90;;
65202;SDS011;51788;45.124;38.966;2024-03-02T12:08:00;28.10;;;14.52;;
65202;SDS011;51788;45.124;38.966;2024-03-02T12:10:27;40.95;;;14.70;;
65202;SDS011;51788;45.124;38.966;2024-03-02T12:13:07;32.70;;;13.88;;
65202;SDS011;51788;45.124;38.966;2024-03-02T12:15:35;22.55;;;12.25;;
65202;SDS011;51788;45.124;38.966;2024-03-02T12:18:02;31.08;;;13.65;;
65202;SDS011;51788;45.124;38.966;2024-03-02T12:20:29;35.30;;;12.20;;
65202;SDS011;51788;45.124;38.966;2024-03-02T12:23:00;33.38;;;13.15;;
65202;SDS011;51788;45.124;38.966;2024-03-02T12:25:27;15.90;;;11.73;;
65202;SDS011;51788;45.124;38.966;2024-03-02T12:27:56;17.88;;;10.23;;
65202;SDS011;51788;45.124;38.966;2024-03-02T12:30:23;21.50;;;11.80;;
65202;SDS011;51788;45.124;38.966;2024-03-02T12:32:49;22.95;;;11.93;;
65202;SDS011;51788;45.124;38.966;2024-03-02T12:35:17;18.30;;;10.55;;
65202;SDS011;51788;45.124;38.966;2024-03-02T12:37:44;26.08;;;9.35;;
65202;SDS011;51788;45.124;38.966;2024-03-02T12:40:11;15.23;;;9.90;;
65202;SDS011;51788;45.124;38.966;2024-03-02T12:42:38;41.13;;;13.50;;
65202;SDS011;51788;45.124;38.966;2024-03-02T12:45:05;33.17;;;15.75;;
65202;SDS011;51788;45.124;38.966;2024-03-02T12:47:33;25.98;;;10.55;;
65202;SDS011;51788;45.124;38.966;2024-03-02T12:49:59;11.32;;;8.27;;
65202;SDS011;51788;45.124;38.966;2024-03-02T12:52:26;29.20;;;10.68;;
65202;SDS011;51788;45.124;38.966;2024-03-02T12:54:52;18.42;;;9.30;;
65202;SDS011;51788;45.124;38.966;2024-03-02T12:57:24;78.60;;;12.15;;
65202;SDS011;51788;45.124;38.966;2024-03-02T13:00:11;29.38;;;11.30;;
65202;SDS011;51788;45.124;38.966;2024-03-02T13:02:41;29.13;;;10.93;;
65202;SDS011;51788;45.124;38.966;2024-03-02T13:05:08;49.67;;;11.93;;
65202;SDS011;51788;45.124;38.966;2024-03-02T13:07:37;17.98;;;9.35;;
65202;SDS011;51788;45.124;38.966;2024-03-02T13:10:04;31.23;;;11.10;;
65202;SDS011;51788;45.124;38.966;2024-03-02T13:12:31;45.70;;;9.60;;
65202;SDS011;51788;45.124;38.966;2024-03-02T13:14:58;9.50;;;7.22;;
65202;SDS011;51788;45.124;38.966;2024-03-02T13:17:24;14.30;;;9.43;;
65202;SDS011;51788;45.124;38.966;2024-03-02T13:19:51;13.85;;;7.90;;
65202;SDS011;51788;45.124;38.966;2024-03-02T13:22:24;24.67;;;9.30;;
65202;SDS011;51788;45.124;38.966;2024-03-02T13:24:51;24.17;;;10.65;;
65202;SDS011;51788;45.124;38.966;2024-03-02T13:27:22;18.73;;;10.55;;
65202;SDS011;51788;45.124;38.966;2024-03-02T13:29:48;40.08;;;11.93;;
65202;SDS011;51788;45.124;38.966;2024-03-02T13:32:14;37.05;;;10.88;;
65202;SDS011;51788;45.124;38.966;2024-03-02T13:34:41;31.33;;;11.60;;
65202;SDS011;51788;45.124;38.966;2024-03-02T13:37:08;12.27;;;8.77;;
65202;SDS011;51788;45.124;38.966;2024-03-02T13:39:34;26.15;;;9.77;;
65202;SDS011;51788;45.124;38.966;2024-03-02T13:42:08;67.43;;;11.43;;
65202;SDS011;51788;45.124;38.966;2024-03-02T13:44:36;22.30;;;9.65;;
65202;SDS011;51788;45.124;38.966;2024-03-02T13:47:02;24.75;;;9.45;;
65202;SDS011;51788;45.124;38.966;2024-03-02T13:49:29;47.10;;;11.25;;
65202;SDS011;51788;45.124;38.966;2024-03-02T13:52:01;16.17;;;9.05;;
65202;SDS011;51788;45.124;38.966;2024-03-02T13:54:39;17.75;;;10.13;;
65202;SDS011;51788;45.124;38.966;2024-03-02T13:57:05;52.08;;;9.32;;
65202;SDS011;51788;45.124;38.966;2024-03-02T13:59:32;22.17;;;10.95;;
65202;SDS011;51788;45.124;38.966;2024-03-02T14:02:00;33.45;;;8.70;;
65202;SDS011;51788;45.124;38.966;2024-03-02T14:04:29;71.90;;;11.23;;
65202;SDS011;51788;45.124;38.966;2024-03-02T14:06:57;53.45;;;9.93;;
65202;SDS011;51788;45.124;38.966;2024-03-02T14:09:23;23.63;;;7.78;;
65202;SDS011;51788;45.124;38.966;2024-03-02T14:11:49;20.25;;;8.63;;
65202;SDS011;51788;45.124;38.966;2024-03-02T14:14:17;44.78;;;9.18;;
65202;SDS011;51788;45.124;38.966;2024-03-02T14:16:44;32.40;;;11.57;;
65202;SDS011;51788;45.124;38.966;2024-03-02T14:19:10;22.85;;;12.25;;
65202;SDS011;51788;45.124;38.966;2024-03-02T14:21:40;38.25;;;17.85;;
65202;SDS011;51788;45.124;38.966;2024-03-02T14:24:06;23.10;;;12.30;;
65202;SDS011;51788;45.124;38.966;2024-03-02T14:26:32;29.13;;;13.85;;